sensor_id;sensor_type;location;lat;lon;timestamp;P1;durP1;ratioP1;P2;durP2;ratioP2
57341;SDS011;43175;51.002;18.316;2023-03-23T00:01:53;19.30;;;11.00;;
57341;SDS011;43175;51.002;18.316;2023-03-23T00:04:18;21.00;;;12.00;;
57341;SDS011;43175;51.002;18.316;2023-03-23T00:06:45;20.60;;;11.50;;
57341;SDS011;43175;51.002;18.316;2023-03-23T00:09:12;17.60;;;10.30;;
57341;SDS011;43175;51.002;18.316;2023-03-23T00:11:48;20.20;;;11.20;;
57341;SDS011;43175;51.002;18.316;2023-03-23T00:14:16;17.80;;;10.20;;
57341;SDS011;43175;51.002;18.316;2023-03-23T00:16:47;18.80;;;10.50;;
57341;SDS011;43175;51.002;18.316;2023-03-23T00:19:14;20.60;;;10.80;;
57341;SDS011;43175;51.002;18.316;2023-03-23T00:21:40;21.40;;;10.20;;
57341;SDS011;43175;51.002;18.316;2023-03-23T00:24:13;19.50;;;10.40;;
57341;SDS011;43175;51.002;18.316;2023-03-23T00:26:43;18.40;;;10.50;;
57341;SDS011;43175;51.002;18.316;2023-03-23T00:29:15;18.40;;;10.50;;
57341;SDS011;43175;51.002;18.316;2023-03-23T00:31:48;19.20;;;10.60;;
57341;SDS011;43175;51.002;18.316;2023-03-23T00:34:21;17.70;;;10.40;;
57341;SDS011;43175;51.002;18.316;2023-03-23T00:36:48;21.60;;;10.90;;
57341;SDS011;43175;51.002;18.316;2023-03-23T00:39:16;17.80;;;10.20;;
57341;SDS011;43175;51.002;18.316;2023-03-23T00:41:43;20.00;;;10.00;;
57341;SDS011;43175;51.002;18.316;2023-03-23T00:44:09;19.50;;;10.60;;
57341;SDS011;43175;51.002;18.316;2023-03-23T00:46:35;20.60;;;10.30;;
57341;SDS011;43175;51.002;18.316;2023-03-23T00:49:12;17.30;;;9.90;;
57341;SDS011;43175;51.002;18.316;2023-03-23T00:51:39;17.80;;;10.10;;
57341;SDS011;43175;51.002;18.316;2023-03-23T00:54:06;18.70;;;9.90;;
57341;SDS011;43175;51.002;18.316;2023-03-23T00:56:32;18.40;;;9.80;;
57341;SDS011;43175;51.002;18.316;2023-03-23T00:58:58;18.40;;;9.70;;
57341;SDS011;43175;51.002;18.316;2023-03-23T01:01:23;17.50;;;9.70;;
57341;SDS011;43175;51.002;18.316;2023-03-23T01:03:48;18.10;;;9.70;;
57341;SDS011;43175;51.002;18.316;2023-03-23T01:06:15;18.70;;;10.00;;
57341;SDS011;43175;51.002;18.316;2023-03-23T01:08:41;19.00;;;10.00;;
57341;SDS011;43175;51.002;18.316;2023-03-23T01:11:11;17.70;;;9.90;;
57341;SDS011;43175;51.002;18.316;2023-03-23T01:13:39;16.30;;;9.80;;
57341;SDS011;43175;51.002;18.316;2023-03-23T01:16:07;18.30;;;10.40;;
57341;SDS011;43175;51.002;18.316;2023-03-23T01:18:33;18.60;;;10.20;;
57341;SDS011;43175;51.002;18.316;2023-03-23T01:21:03;18.30;;;10.40;;
57341;SDS011;43175;51.002;18.316;2023-03-23T01:23:31;21.20;;;10.30;;
57341;SDS011;43175;51.002;18.316;2023-03-23T01:25:57;21.10;;;11.30;;
57341;SDS011;43175;51.002;18.316;2023-03-23T01:28:28;17.30;;;10.30;;
57341;SDS011;43175;51.002;18.316;2023-03-23T01:30:58;18.60;;;10.20;;
57341;SDS011;43175;51.002;18.316;2023-03-23T01:33:25;20.80;;;10.80;;
57341;SDS011;43175;51.002;18.316;2023-03-23T01:35:51;21.10;;;10.50;;
57341;SDS011;43175;51.002;18.316;2023-03-23T01:38:16;18.00;;;10.50;;
57341;SDS011;43175;51.002;18.316;2023-03-23T01:40:42;19.60;;;10.70;;
57341;SDS011;43175;51.002;18.316;2023-03-23T01:43:11;20.00;;;10.70;;
57341;SDS011;43175;51.002;18.316;2023-03-23T01:45:38;20.20;;;11.00;;
57341;SDS011;43175;51.002;18.316;2023-03-23T01:48:13;20.00;;;10.00;;
57341;SDS011;43175;51.002;18.316;2023-03-23T01:50:47;18.50;;;10.70;;
57341;SDS011;43175;51.002;18.316;2023-03-23T01:53:17;20.60;;;10.00;;
57341;SDS011;43175;51.002;18.316;2023-03-23T01:55:43;22.50;;;10.90;;
57341;SDS011;43175;51.002;18.316;2023-03-23T01:58:13;19.40;;;10.60;;
57341;SDS011;43175;51.002;18.316;2023-03-23T02:00:39;18.40;;;10.50;;
57341;SDS011;43175;51.002;18.316;2023-03-23T02:03:07;19.60;;;10.60;;
57341;SDS011;43175;51.002;18.316;2023-03-23T02:05:39;20.40;;;10.60;;
57341;SDS011;43175;51.002;18.316;2023-03-23T02:08:06;20.80;;;10.40;;
57341;SDS011;43175;51.002;18.316;2023-03-23T02:10:34;19.30;;;10.50;;
57341;SDS011;43175;51.002;18.316;2023-03-23T02:13:02;18.90;;;10.20;;
57341;SDS011;43175;51.002;18.316;2023-03-23T02:15:32;18.80;;;10.50;;
57341;SDS011;43175;51.002;18.316;2023-03-23T02:20:57;21.60;;;10.90;;
57341;SDS011;43175;51.002;18.316;2023-03-23T02:26:38;18.60;;;10.70;;
57341;SDS011;43175;51.002;18.316;2023-03-23T02:35:10;19.10;;;11.00;;
57341;SDS011;43175;51.002;18.316;2023-03-23T02:37:40;19.10;;;10.60;;
57341;SDS011;43175;51.002;18.316;2023-03-23T02:40:21;18.10;;;10.20;;
57341;SDS011;43175;51.002;18.316;2023-03-23T02:42:51;19.20;;;11.10;;
57341;SDS011;43175;51.002;18.316;2023-03-23T02:45:19;18.10;;;10.80;;
57341;SDS011;43175;51.002;18.316;2023-03-23T02:47:47;18.30;;;11.60;;
57341;SDS011;43175;51.002;18.316;2023-03-23T02:50:14;19.40;;;10.90;;
57341;SDS011;43175;51.002;18.316;2023-03-23T02:52:41;18.10;;;11.10;;
57341;SDS011;43175;51.002;18.316;2023-03-23T02:55:09;21.80;;;11.10;;
57341;SDS011;43175;51.002;18.316;2023-03-23T02:57:37;19.20;;;10.80;;
57341;SDS011;43175;51.002;18.316;2023-03-23T03:00:04;19.20;;;11.20;;
57341;SDS011;43175;51.002;18.316;2023-03-23T03:02:36;20.20;;;11.50;;
57341;SDS011;43175;51.002;18.316;2023-03-23T03:10:19;19.40;;;11.20;;
57341;SDS011;43175;51.002;18.316;2023-03-23T03:12:58;19.40;;;11.60;;
57341;SDS011;43175;51.002;18.316;2023-03-23T03:15:40;20.20;;;11.90;;
57341;SDS011;43175;51.002;18.316;2023-03-23T03:18:14;22.10;;;11.80;;
57341;SDS011;43175;51.002;18.316;2023-03-23T03:20:50;21.10;;;11.80;;
57341;SDS011;43175;51.002;18.316;2023-03-23T03:23:19;18.80;;;11.60;;
57341;SDS011;43175;51.002;18.316;2023-03-23T03:25:45;19.30;;;11.60;;
57341;SDS011;43175;51.002;18.316;2023-03-23T03:28:19;21.80;;;11.60;;
57341;SDS011;43175;51.002;18.316;2023-03-23T03:30:51;20.10;;;11.50;;
57341;SDS011;43175;51.002;18.316;2023-03-23T03:33:19;18.90;;;11.30;;
57341;SDS011;43175;51.002;18.316;2023-03-23T03:35:45;20.50;;;12.20;;
57341;SDS011;43175;51.002;18.316;2023-03-23T03:38:12;19.10;;;11.30;;
57341;SDS011;43175;51.002;18.316;2023-03-23T03:40:37;20.00;;;11.90;;
57341;SDS011;43175;51.002;18.316;2023-03-23T03:43:03;21.40;;;12.30;;
57341;SDS011;43175;51.002;18.316;2023-03-23T03:45:29;21.30;;;12.50;;
57341;SDS011;43175;51.002;18.316;2023-03-23T03:47:55;19.30;;;12.20;;
57341;SDS011;43175;51.002;18.316;2023-03-23T03:50:21;21.20;;;12.70;;
57341;SDS011;43175;51.002;18.316;2023-03-23T03:52:47;21.60;;;13.10;;
57341;SDS011;43175;51.002;18.316;2023-03-23T03:55:13;22.40;;;13.40;;
57341;SDS011;43175;51.002;18.316;2023-03-23T03:57:38;21.40;;;13.40;;
57341;SDS011;43175;51.002;18.316;2023-03-23T04:00:05;22.00;;;13.60;;
57341;SDS011;43175;51.002;18.316;2023-03-23T04:02:40;24.00;;;12.70;;
57341;SDS011;43175;51.002;18.316;2023-03-23T04:05:08;23.00;;;13.60;;
57341;SDS011;43175;51.002;18.316;2023-03-23T04:07:35;23.40;;;13.80;;
57341;SDS011;43175;51.002;18.316;2023-03-23T04:10:07;21.00;;;13.50;;
57341;SDS011;43175;51.002;18.316;2023-03-23T04:12:35;23.20;;;13.40;;
57341;SDS011;43175;51.002;18.316;2023-03-23T04:15:00;24.40;;;13.90;;
57341;SDS011;43175;51.002;18.316;2023-03-23T04:17:26;23.00;;;13.30;;
57341;SDS011;43175;51.002;18.316;2023-03-23T04:19:52;24.60;;;14.70;;
57341;SDS011;43175;51.002;18.316;2023-03-23T04:22:22;25.10;;;13.80;;
57341;SDS011;43175;51.002;18.316;2023-03-23T04:24:56;23.00;;;13.70;;
57341;SDS011;43175;51.002;18.316;2023-03-23T04:27:24;24.90;;;14.40;;
57341;SDS011;43175;51.002;18.316;2023-03-23T04:29:50;25.10;;;14.50;;
57341;SDS011;43175;51.002;18.316;2023-03-23T04:32:16;24.10;;;14.40;;
57341;SDS011;43175;51.002;18.316;2023-03-23T04:34:44;24.80;;;15.00;;
57341;SDS011;43175;51.002;18.316;2023-03-23T04:37:10;24.40;;;14.40;;
57341;SDS011;43175;51.002;18.316;2023-03-23T04:39:35;24.40;;;14.90;;
57341;SDS011;43175;51.002;18.316;2023-03-23T04:42:01;24.60;;;15.00;;
57341;SDS011;43175;51.002;18.316;2023-03-23T04:44:27;23.20;;;14.70;;
57341;SDS011;43175;51.002;18.316;2023-03-23T04:46:54;24.70;;;14.80;;
57341;SDS011;43175;51.002;18.316;2023-03-23T04:49:20;25.40;;;14.90;;
57341;SDS011;43175;51.002;18.316;2023-03-23T04:51:46;23.50;;;14.70;;
57341;SDS011;43175;51.002;18.316;2023-03-23T04:54:12;24.90;;;15.30;;
57341;SDS011;43175;51.002;18.316;2023-03-23T04:56:38;24.60;;;15.00;;
57341;SDS011;43175;51.002;18.316;2023-03-23T04:59:03;23.70;;;14.50;;
57341;SDS011;43175;51.002;18.316;2023-03-23T05:01:31;25.20;;;14.90;;
57341;SDS011;43175;51.002;18.316;2023-03-23T05:03:57;23.90;;;16.00;;
57341;SDS011;43175;51.002;18.316;2023-03-23T05:06:22;23.60;;;15.70;;
57341;SDS011;43175;51.002;18.316;2023-03-23T05:08:48;25.00;;;15.90;;
57341;SDS011;43175;51.002;18.316;2023-03-23T05:11:13;26.90;;;17.00;;
57341;SDS011;43175;51.002;18.316;2023-03-23T05:13:39;26.10;;;16.10;;
57341;SDS011;43175;51.002;18.316;2023-03-23T05:16:05;24.50;;;15.70;;
57341;SDS011;43175;51.002;18.316;2023-03-23T05:18:31;26.00;;;15.80;;
57341;SDS011;43175;51.002;18.316;2023-03-23T05:21:01;24.40;;;15.00;;
57341;SDS011;43175;51.002;18.316;2023-03-23T05:23:28;23.60;;;15.30;;
57341;SDS011;43175;51.002;18.316;2023-03-23T05:25:56;23.80;;;15.70;;
57341;SDS011;43175;51.002;18.316;2023-03-23T05:28:26;23.60;;;15.40;;
57341;SDS011;43175;51.002;18.316;2023-03-23T05:30:52;23.90;;;15.90;;
57341;SDS011;43175;51.002;18.316;2023-03-23T05:33:19;24.90;;;15.60;;
57341;SDS011;43175;51.002;18.316;2023-03-23T05:35:46;24.40;;;15.90;;
57341;SDS011;43175;51.002;18.316;2023-03-23T05:38:13;23.00;;;15.60;;
57341;SDS011;43175;51.002;18.316;2023-03-23T05:40:40;24.30;;;15.80;;
57341;SDS011;43175;51.002;18.316;2023-03-23T05:43:07;25.70;;;15.90;;
57341;SDS011;43175;51.002;18.316;2023-03-23T05:45:33;25.90;;;16.70;;
57341;SDS011;43175;51.002;18.316;2023-03-23T05:47:59;23.20;;;14.90;;
57341;SDS011;43175;51.002;18.316;2023-03-23T05:50:24;22.20;;;14.90;;
57341;SDS011;43175;51.002;18.316;2023-03-23T05:52:51;24.70;;;15.30;;
57341;SDS011;43175;51.002;18.316;2023-03-23T05:55:16;25.10;;;15.10;;
57341;SDS011;43175;51.002;18.316;2023-03-23T05:57:42;21.60;;;14.00;;
57341;SDS011;43175;51.002;18.316;2023-03-23T06:00:08;22.70;;;14.80;;
57341;SDS011;43175;51.002;18.316;2023-03-23T06:02:36;22.80;;;14.70;;
57341;SDS011;43175;51.002;18.316;2023-03-23T06:05:02;22.20;;;14.10;;
57341;SDS011;43175;51.002;18.316;2023-03-23T06:07:28;21.00;;;13.40;;
57341;SDS011;43175;51.002;18.316;2023-03-23T06:09:54;20.50;;;13.10;;
57341;SDS011;43175;51.002;18.316;2023-03-23T06:12:19;21.20;;;13.10;;
57341;SDS011;43175;51.002;18.316;2023-03-23T06:14:48;19.80;;;13.00;;
57341;SDS011;43175;51.002;18.316;2023-03-23T06:17:14;20.70;;;12.80;;
57341;SDS011;43175;51.002;18.316;2023-03-23T06:19:41;19.60;;;12.20;;
57341;SDS011;43175;51.002;18.316;2023-03-23T06:22:07;19.30;;;12.20;;
57341;SDS011;43175;51.002;18.316;2023-03-23T06:24:32;20.80;;;12.10;;
57341;SDS011;43175;51.002;18.316;2023-03-23T06:26:58;20.30;;;11.50;;
57341;SDS011;43175;51.002;18.316;2023-03-23T06:29:24;21.50;;;11.90;;
57341;SDS011;43175;51.002;18.316;2023-03-23T06:31:52;22.10;;;12.40;;
57341;SDS011;43175;51.002;18.316;2023-03-23T06:34:19;20.80;;;12.00;;
57341;SDS011;43175;51.002;18.316;2023-03-23T06:36:45;19.20;;;11.20;;
57341;SDS011;43175;51.002;18.316;2023-03-23T06:39:12;19.90;;;12.10;;
57341;SDS011;43175;51.002;18.316;2023-03-23T06:41:38;18.10;;;11.40;;
57341;SDS011;43175;51.002;18.316;2023-03-23T06:44:04;21.90;;;12.50;;
57341;SDS011;43175;51.002;18.316;2023-03-23T06:46:31;19.80;;;12.40;;
57341;SDS011;43175;51.002;18.316;2023-03-23T06:48:57;18.50;;;11.60;;
57341;SDS011;43175;51.002;18.316;2023-03-23T06:51:23;20.40;;;12.40;;
57341;SDS011;43175;51.002;18.316;2023-03-23T06:53:48;18.80;;;11.20;;
57341;SDS011;43175;51.002;18.316;2023-03-23T06:56:14;18.50;;;10.40;;
57341;SDS011;43175;51.002;18.316;2023-03-23T06:58:40;20.90;;;11.30;;
57341;SDS011;43175;51.002;18.316;2023-03-23T07:01:07;18.10;;;10.80;;
57341;SDS011;43175;51.002;18.316;2023-03-23T07:03:33;18.20;;;11.70;;
57341;SDS011;43175;51.002;18.316;2023-03-23T07:05:59;19.00;;;11.20;;
57341;SDS011;43175;51.002;18.316;2023-03-23T07:08:25;17.50;;;10.80;;
57341;SDS011;43175;51.002;18.316;2023-03-23T07:10:54;19.00;;;10.90;;
57341;SDS011;43175;51.002;18.316;2023-03-23T07:13:20;18.40;;;10.90;;
57341;SDS011;43175;51.002;18.316;2023-03-23T07:15:46;20.50;;;11.40;;
57341;SDS011;43175;51.002;18.316;2023-03-23T07:18:11;17.80;;;11.20;;
57341;SDS011;43175;51.002;18.316;2023-03-23T07:20:37;17.20;;;10.30;;
57341;SDS011;43175;51.002;18.316;2023-03-23T07:23:03;19.40;;;11.20;;
57341;SDS011;43175;51.002;18.316;2023-03-23T07:25:31;19.50;;;11.40;;
57341;SDS011;43175;51.002;18.316;2023-03-23T07:27:58;18.30;;;11.10;;
57341;SDS011;43175;51.002;18.316;2023-03-23T07:30:27;20.10;;;11.40;;
57341;SDS011;43175;51.002;18.316;2023-03-23T07:32:54;19.20;;;11.80;;
57341;SDS011;43175;51.002;18.316;2023-03-23T07:35:21;18.40;;;11.40;;
57341;SDS011;43175;51.002;18.316;2023-03-23T07:37:46;20.40;;;11.30;;
57341;SDS011;43175;51.002;18.316;2023-03-23T07:40:14;19.30;;;11.20;;
57341;SDS011;43175;51.002;18.316;2023-03-23T07:42:43;19.60;;;11.80;;
57341;SDS011;43175;51.002;18.316;2023-03-23T07:45:13;19.20;;;11.40;;
57341;SDS011;43175;51.002;18.316;2023-03-23T07:47:39;18.70;;;11.20;;
57341;SDS011;43175;51.002;18.316;2023-03-23T07:50:07;18.20;;;11.40;;
57341;SDS011;43175;51.002;18.316;2023-03-23T07:52:34;18.30;;;11.40;;
57341;SDS011;43175;51.002;18.316;2023-03-23T07:55:00;19.40;;;11.50;;
57341;SDS011;43175;51.002;18.316;2023-03-23T07:57:27;17.60;;;10.60;;
57341;SDS011;43175;51.002;18.316;2023-03-23T07:59:52;17.00;;;11.00;;
57341;SDS011;43175;51.002;18.316;2023-03-23T08:02:18;17.90;;;10.40;;
57341;SDS011;43175;51.002;18.316;2023-03-23T08:04:44;17.50;;;10.90;;
57341;SDS011;43175;51.002;18.316;2023-03-23T08:07:10;16.50;;;10.10;;
57341;SDS011;43175;51.002;18.316;2023-03-23T08:09:37;18.10;;;10.60;;
57341;SDS011;43175;51.002;18.316;2023-03-23T08:12:04;18.20;;;10.20;;
57341;SDS011;43175;51.002;18.316;2023-03-23T08:14:30;18.60;;;10.40;;
57341;SDS011;43175;51.002;18.316;2023-03-23T08:16:56;18.70;;;10.50;;
57341;SDS011;43175;51.002;18.316;2023-03-23T08:19:22;18.30;;;10.60;;
57341;SDS011;43175;51.002;18.316;2023-03-23T08:21:48;17.00;;;9.40;;
57341;SDS011;43175;51.002;18.316;2023-03-23T08:24:14;16.20;;;9.30;;
57341;SDS011;43175;51.002;18.316;2023-03-23T08:26:40;17.10;;;9.50;;
57341;SDS011;43175;51.002;18.316;2023-03-23T08:29:06;16.40;;;9.70;;
57341;SDS011;43175;51.002;18.316;2023-03-23T08:31:32;15.60;;;8.80;;
57341;SDS011;43175;51.002;18.316;2023-03-23T08:34:00;15.50;;;8.70;;
57341;SDS011;43175;51.002;18.316;2023-03-23T08:36:26;16.60;;;8.80;;
57341;SDS011;43175;51.002;18.316;2023-03-23T08:38:53;17.90;;;9.60;;
57341;SDS011;43175;51.002;18.316;2023-03-23T08:41:19;15.10;;;8.60;;
57341;SDS011;43175;51.002;18.316;2023-03-23T08:43:45;16.10;;;8.40;;
57341;SDS011;43175;51.002;18.316;2023-03-23T08:46:11;14.80;;;8.20;;
57341;SDS011;43175;51.002;18.316;2023-03-23T08:48:38;15.60;;;8.70;;
57341;SDS011;43175;51.002;18.316;2023-03-23T08:51:04;14.40;;;8.20;;
57341;SDS011;43175;51.002;18.316;2023-03-23T08:53:31;14.70;;;8.30;;
57341;SDS011;43175;51.002;18.316;2023-03-23T08:56:04;14.80;;;7.60;;
57341;SDS011;43175;51.002;18.316;2023-03-23T08:58:31;14.10;;;7.30;;
57341;SDS011;43175;51.002;18.316;2023-03-23T09:00:57;15.10;;;7.70;;
57341;SDS011;43175;51.002;18.316;2023-03-23T09:03:23;15.00;;;7.70;;
57341;SDS011;43175;51.002;18.316;2023-03-23T09:05:49;14.20;;;7.50;;
57341;SDS011;43175;51.002;18.316;2023-03-23T09:08:14;13.90;;;7.50;;
57341;SDS011;43175;51.002;18.316;2023-03-23T09:10:40;14.00;;;7.20;;
57341;SDS011;43175;51.002;18.316;2023-03-23T09:13:06;13.50;;;7.00;;
57341;SDS011;43175;51.002;18.316;2023-03-23T09:15:32;14.40;;;7.40;;
57341;SDS011;43175;51.002;18.316;2023-03-23T09:17:58;13.30;;;7.10;;
57341;SDS011;43175;51.002;18.316;2023-03-23T09:20:25;16.40;;;7.20;;
57341;SDS011;43175;51.002;18.316;2023-03-23T09:22:52;14.30;;;7.00;;
57341;SDS011;43175;51.002;18.316;2023-03-23T09:25:20;13.70;;;7.30;;
57341;SDS011;43175;51.002;18.316;2023-03-23T09:27:50;13.00;;;6.40;;
57341;SDS011;43175;51.002;18.316;2023-03-23T09:30:22;13.00;;;6.40;;
57341;SDS011;43175;51.002;18.316;2023-03-23T09:32:51;15.10;;;6.80;;
57341;SDS011;43175;51.002;18.316;2023-03-23T09:35:16;12.10;;;5.90;;
57341;SDS011;43175;51.002;18.316;2023-03-23T09:37:43;13.80;;;6.30;;
57341;SDS011;43175;51.002;18.316;2023-03-23T09:40:20;11.60;;;5.40;;
57341;SDS011;43175;51.002;18.316;2023-03-23T09:45:35;12.30;;;5.90;;
57341;SDS011;43175;51.002;18.316;2023-03-23T09:50:50;11.90;;;5.80;;
57341;SDS011;43175;51.002;18.316;2023-03-23T09:53:22;11.50;;;5.40;;
57341;SDS011;43175;51.002;18.316;2023-03-23T09:55:51;11.30;;;5.20;;
57341;SDS011;43175;51.002;18.316;2023-03-23T10:01:06;11.90;;;4.80;;
57341;SDS011;43175;51.002;18.316;2023-03-23T10:03:37;13.50;;;5.80;;
57341;SDS011;43175;51.002;18.316;2023-03-23T10:06:05;12.30;;;5.70;;
57341;SDS011;43175;51.002;18.316;2023-03-23T10:08:33;29.00;;;16.10;;
57341;SDS011;43175;51.002;18.316;2023-03-23T10:11:03;41.90;;;26.80;;
57341;SDS011;43175;51.002;18.316;2023-03-23T10:16:19;21.70;;;11.10;;
57341;SDS011;43175;51.002;18.316;2023-03-23T10:21:23;13.30;;;5.60;;
57341;SDS011;43175;51.002;18.316;2023-03-23T10:23:54;11.70;;;5.30;;
57341;SDS011;43175;51.002;18.316;2023-03-23T10:26:28;12.30;;;4.50;;
57341;SDS011;43175;51.002;18.316;2023-03-23T10:29:04;12.90;;;6.90;;
57341;SDS011;43175;51.002;18.316;2023-03-23T10:31:37;11.70;;;5.50;;
57341;SDS011;43175;51.002;18.316;2023-03-23T10:34:10;11.80;;;4.40;;
57341;SDS011;43175;51.002;18.316;2023-03-23T10:36:51;11.70;;;3.80;;
57341;SDS011;43175;51.002;18.316;2023-03-23T10:39:24;9.00;;;3.70;;
57341;SDS011;43175;51.002;18.316;2023-03-23T10:41:53;11.00;;;5.20;;
57341;SDS011;43175;51.002;18.316;2023-03-23T10:44:19;9.30;;;3.60;;
57341;SDS011;43175;51.002;18.316;2023-03-23T10:49:24;10.10;;;3.30;;
57341;SDS011;43175;51.002;18.316;2023-03-23T10:51:57;9.20;;;3.20;;
57341;SDS011;43175;51.002;18.316;2023-03-23T10:54:36;8.20;;;3.20;;
57341;SDS011;43175;51.002;18.316;2023-03-23T10:57:17;9.60;;;2.90;;
57341;SDS011;43175;51.002;18.316;2023-03-23T10:59:47;9.70;;;3.10;;
57341;SDS011;43175;51.002;18.316;2023-03-23T11:02:17;8.60;;;2.90;;
57341;SDS011;43175;51.002;18.316;2023-03-23T11:05:03;9.00;;;2.70;;
57341;SDS011;43175;51.002;18.316;2023-03-23T11:07:34;9.70;;;2.80;;
57341;SDS011;43175;51.002;18.316;2023-03-23T11:10:35;10.00;;;2.70;;
57341;SDS011;43175;51.002;18.316;2023-03-23T11:12:56;8.70;;;2.80;;
57341;SDS011;43175;51.002;18.316;2023-03-23T11:15:34;7.50;;;2.60;;
57341;SDS011;43175;51.002;18.316;2023-03-23T11:18:05;9.00;;;2.70;;
57341;SDS011;43175;51.002;18.316;2023-03-23T11:20:43;7.90;;;2.70;;
57341;SDS011;43175;51.002;18.316;2023-03-23T11:23:13;7.70;;;2.50;;
57341;SDS011;43175;51.002;18.316;2023-03-23T11:28:46;9.80;;;3.00;;
57341;SDS011;43175;51.002;18.316;2023-03-23T11:31:17;9.00;;;2.90;;
57341;SDS011;43175;51.002;18.316;2023-03-23T11:33:48;8.50;;;2.90;;
57341;SDS011;43175;51.002;18.316;2023-03-23T11:36:18;8.50;;;2.80;;
57341;SDS011;43175;51.002;18.316;2023-03-23T11:38:44;7.10;;;2.50;;
57341;SDS011;43175;51.002;18.316;2023-03-23T11:41:11;9.80;;;3.30;;
57341;SDS011;43175;51.002;18.316;2023-03-23T11:43:41;9.20;;;2.70;;
57341;SDS011;43175;51.002;18.316;2023-03-23T11:55:35;8.60;;;2.90;;
57341;SDS011;43175;51.002;18.316;2023-03-23T11:58:18;8.30;;;2.90;;
57341;SDS011;43175;51.002;18.316;2023-03-23T12:00:53;8.80;;;3.10;;
57341;SDS011;43175;51.002;18.316;2023-03-23T12:03:24;9.60;;;3.50;;
57341;SDS011;43175;51.002;18.316;2023-03-23T12:06:12;9.70;;;2.80;;
57341;SDS011;43175;51.002;18.316;2023-03-23T12:14:44;10.00;;;2.80;;
57341;SDS011;43175;51.002;18.316;2023-03-23T12:28:04;10.70;;;2.90;;
57341;SDS011;43175;51.002;18.316;2023-03-23T12:30:42;7.90;;;2.70;;
57341;SDS011;43175;51.002;18.316;2023-03-23T12:36:14;8.40;;;2.50;;
57341;SDS011;43175;51.002;18.316;2023-03-23T12:44:13;9.60;;;2.90;;
57341;SDS011;43175;51.002;18.316;2023-03-23T12:46:44;8.40;;;2.70;;
57341;SDS011;43175;51.002;18.316;2023-03-23T12:49:31;8.80;;;2.90;;
57341;SDS011;43175;51.002;18.316;2023-03-23T12:52:04;9.60;;;2.90;;
57341;SDS011;43175;51.002;18.316;2023-03-23T12:54:44;9.30;;;2.90;;
57341;SDS011;43175;51.002;18.316;2023-03-23T13:02:34;9.70;;;2.90;;
57341;SDS011;43175;51.002;18.316;2023-03-23T13:07:56;7.70;;;2.70;;
57341;SDS011;43175;51.002;18.316;2023-03-23T13:10:31;10.40;;;2.80;;
57341;SDS011;43175;51.002;18.316;2023-03-23T13:13:03;8.40;;;2.60;;
57341;SDS011;43175;51.002;18.316;2023-03-23T13:21:21;8.50;;;2.90;;
57341;SDS011;43175;51.002;18.316;2023-03-23T13:24:01;8.40;;;2.80;;
57341;SDS011;43175;51.002;18.316;2023-03-23T13:26:30;9.40;;;3.00;;
57341;SDS011;43175;51.002;18.316;2023-03-23T13:28:59;9.30;;;3.10;;
57341;SDS011;43175;51.002;18.316;2023-03-23T13:36:56;9.30;;;3.50;;
57341;SDS011;43175;51.002;18.316;2023-03-23T13:39:24;10.90;;;4.60;;
57341;SDS011;43175;51.002;18.316;2023-03-23T13:42:05;8.80;;;3.10;;
57341;SDS011;43175;51.002;18.316;2023-03-23T13:57:55;9.70;;;3.10;;
57341;SDS011;43175;51.002;18.316;2023-03-23T14:05:41;10.00;;;3.00;;
57341;SDS011;43175;51.002;18.316;2023-03-23T14:10:42;9.20;;;3.00;;
57341;SDS011;43175;51.002;18.316;2023-03-23T14:13:31;8.50;;;2.80;;
57341;SDS011;43175;51.002;18.316;2023-03-23T14:16:01;7.50;;;2.60;;
57341;SDS011;43175;51.002;18.316;2023-03-23T14:18:38;8.80;;;3.10;;
57341;SDS011;43175;51.002;18.316;2023-03-23T14:21:05;8.20;;;3.00;;
57341;SDS011;43175;51.002;18.316;2023-03-23T14:23:32;10.60;;;3.10;;
57341;SDS011;43175;51.002;18.316;2023-03-23T14:26:00;11.90;;;3.20;;
57341;SDS011;43175;51.002;18.316;2023-03-23T14:28:37;8.90;;;3.30;;
57341;SDS011;43175;51.002;18.316;2023-03-23T14:31:05;9.90;;;3.20;;
57341;SDS011;43175;51.002;18.316;2023-03-23T14:33:37;10.80;;;3.20;;
57341;SDS011;43175;51.002;18.316;2023-03-23T14:36:05;9.50;;;3.30;;
57341;SDS011;43175;51.002;18.316;2023-03-23T14:38:31;10.20;;;3.20;;
57341;SDS011;43175;51.002;18.316;2023-03-23T14:41:03;9.00;;;3.00;;
57341;SDS011;43175;51.002;18.316;2023-03-23T14:43:30;9.70;;;3.10;;
57341;SDS011;43175;51.002;18.316;2023-03-23T14:45:58;9.10;;;3.40;;
57341;SDS011;43175;51.002;18.316;2023-03-23T14:48:26;8.60;;;3.30;;
57341;SDS011;43175;51.002;18.316;2023-03-23T14:50:57;11.20;;;3.30;;
57341;SDS011;43175;51.002;18.316;2023-03-23T14:55:52;9.50;;;3.60;;
57341;SDS011;43175;51.002;18.316;2023-03-23T14:58:20;12.60;;;3.80;;
57341;SDS011;43175;51.002;18.316;2023-03-23T15:00:49;12.80;;;4.20;;
57341;SDS011;43175;51.002;18.316;2023-03-23T15:03:42;11.60;;;4.50;;
57341;SDS011;43175;51.002;18.316;2023-03-23T15:06:13;12.00;;;4.40;;
57341;SDS011;43175;51.002;18.316;2023-03-23T15:08:41;11.50;;;4.20;;
57341;SDS011;43175;51.002;18.316;2023-03-23T15:14:49;16.00;;;5.30;;
57341;SDS011;43175;51.002;18.316;2023-03-23T15:17:21;11.00;;;4.70;;
57341;SDS011;43175;51.002;18.316;2023-03-23T15:19:50;11.50;;;4.60;;
57341;SDS011;43175;51.002;18.316;2023-03-23T15:22:24;13.80;;;4.60;;
57341;SDS011;43175;51.002;18.316;2023-03-23T15:24:52;11.30;;;4.90;;
57341;SDS011;43175;51.002;18.316;2023-03-23T15:27:29;12.90;;;5.20;;
57341;SDS011;43175;51.002;18.316;2023-03-23T15:29:58;13.30;;;5.00;;
57341;SDS011;43175;51.002;18.316;2023-03-23T15:32:27;12.00;;;5.10;;
57341;SDS011;43175;51.002;18.316;2023-03-23T15:35:03;12.60;;;5.40;;
57341;SDS011;43175;51.002;18.316;2023-03-23T15:37:35;12.60;;;5.70;;
57341;SDS011;43175;51.002;18.316;2023-03-23T15:40:13;13.30;;;6.40;;
57341;SDS011;43175;51.002;18.316;2023-03-23T15:42:40;13.80;;;6.70;;
57341;SDS011;43175;51.002;18.316;2023-03-23T15:50:14;26.10;;;18.90;;
57341;SDS011;43175;51.002;18.316;2023-03-23T15:52:57;19.80;;;13.70;;
57341;SDS011;43175;51.002;18.316;2023-03-23T15:57:53;18.60;;;12.30;;
57341;SDS011;43175;51.002;18.316;2023-03-23T16:00:20;19.20;;;12.20;;
57341;SDS011;43175;51.002;18.316;2023-03-23T16:02:49;18.80;;;10.40;;
57341;SDS011;43175;51.002;18.316;2023-03-23T16:05:17;12.60;;;5.80;;
57341;SDS011;43175;51.002;18.316;2023-03-23T16:07:42;12.20;;;5.30;;
57341;SDS011;43175;51.002;18.316;2023-03-23T16:10:14;10.50;;;4.60;;
57341;SDS011;43175;51.002;18.316;2023-03-23T16:12:41;11.70;;;4.30;;
57341;SDS011;43175;51.002;18.316;2023-03-23T16:15:07;12.20;;;5.20;;
57341;SDS011;43175;51.002;18.316;2023-03-23T16:17:33;16.30;;;8.70;;
57341;SDS011;43175;51.002;18.316;2023-03-23T16:19:59;12.40;;;6.00;;
57341;SDS011;43175;51.002;18.316;2023-03-23T16:22:24;11.60;;;4.60;;
57341;SDS011;43175;51.002;18.316;2023-03-23T16:24:49;11.90;;;4.90;;
57341;SDS011;43175;51.002;18.316;2023-03-23T16:27:15;13.40;;;4.90;;
57341;SDS011;43175;51.002;18.316;2023-03-23T16:29:41;13.20;;;4.60;;
57341;SDS011;43175;51.002;18.316;2023-03-23T16:32:07;11.70;;;5.10;;